Emerald Leader — C6WP4 — position and weather

sailwx.info

Track history (hours):
 
Tides and Currents Weather Stations Pressure Air Temp Water Temp Dewpoint Dewpoint Depression Visibility Wind Speed Wind Dir Waves Ship Positions

Emerald Leader

Last reported at 2016-Jun-29 23:15 UTC. Time now 2016-Jun-29 23:46 UTC.
Position N 36°36' W 001°05'.

Length 176 m; draft 7.7 m.

Type: Cargo ship. MMSI: 308688000.

Date/timePositionNaut miles runAvg speedWind from/ knotsBaromVisibWave heightAir tempDewpointWater temp
2016-Jun-29 23:15N 36°36' W 001°05'1014.6
2016-Jun-29 22:33N 36°38' W 000°53'1414.7
2016-Jun-29 21:33N 36°41' W 000°35'1514.6
2016-Jun-29 20:33N 36°41' W 000°17'1616.1
2016-Jun-29 19:33N 36°44' E 000°03'1717.0
2016-Jun-29 18:33N 36°47' E 000°24'1717.0
2016-Jun-29 17:33N 36°50' E 000°45'1616.1
2016-Jun-29 16:33N 36°52' E 001°05'1616.1
2016-Jun-29 15:32N 36°55' E 001°25'1615.9
2016-Jun-29 14:33N 36°57' E 001°45'1616.0
2016-Jun-29 13:33N 37°01' E 002°04'1716.1
2016-Jun-29 12:31N 37°03' E 002°25'6416.2
2016-Jun-29 08:33N 37°11' E 003°45'1716.1
2016-Jun-29 07:29N 37°14' E 004°06'1415.5
2016-Jun-29 06:33N 37°15' E 004°24'3416.3
2016-Jun-29 04:28N 37°19' E 005°07'3116.1
2016-Jun-29 02:32N 37°24' E 005°45'1616.3
2016-Jun-29 01:32N 37°25' E 006°06'1515.7
2016-Jun-29 00:33N 37°27' E 006°25'8515.6
2016-Jun-28 19:07N 37°40' E 008°11'1017.1
2016-Jun-28 18:33N 37°41' E 008°23'4715.4
2016-Jun-28 15:31N 37°43' E 009°22'1514.3
2016-Jun-28 14:27N 37°41' E 009°41'10014.1
2016-Jun-28 07:20N 37°13' E 011°42'1113.6
2016-Jun-28 06:33N 37°08' E 011°54'2814.2
2016-Jun-28 04:34N 36°58' E 012°27'1514.6
2016-Jun-28 03:34N 36°54' E 012°45'1514.6
2016-Jun-28 02:34N 36°49' E 013°02'1414.5
2016-Jun-28 01:34N 36°45' E 013°20'1514.6
2016-Jun-28 00:34N 36°41' E 013°37'1514.7
2016-Jun-27 23:33N 36°36' E 013°54'1514.7
2016-Jun-27 22:34N 36°32' E 014°12'1514.8
2016-Jun-27 21:34N 36°28' E 014°30'1515.0
2016-Jun-27 20:34N 36°25' E 014°48'1515.2
2016-Jun-27 19:34N 36°25' E 015°07'1514.9
2016-Jun-27 18:33N 36°25' E 015°26'1615.9
2016-Jun-27 17:33N 36°24' E 015°45'1615.9
2016-Jun-27 16:32N 36°24' E 016°05'2215.3
2016-Jun-27 15:08N 36°24' E 016°32'34814.6
2016-Jun-26 15:17N 37°03' E 023°44'1516.2
2016-Jun-26 14:21N 37°15' E 023°54'1416.6
2016-Jun-26 13:30N 37°28' E 024°02'1916.8
2016-Jun-26 12:22N 37°44' E 024°15'277 6.3
2016-Jun-24 16:24N 40°25' E 029°05'4 4.6
2016-Jun-24 15:29N 40°25' E 028°59'1 1.3
2016-Jun-24 14:33N 40°26' E 029°00'2 2.0
2016-Jun-24 13:27N 40°27' E 029°03'1 0.0
2016-Jun-23 20:19N 40°27' E 029°03'16 5.8
2016-Jun-23 17:33N 40°43' E 028°60'1615.7
2016-Jun-23 16:33N 40°44' E 029°21'8 0.2
2016-Jun-21 16:26N 40°45' E 029°32'1011.2
2016-Jun-21 15:33N 40°43' E 029°19'9 8.7
2016-Jun-21 14:32N 40°41' E 029°07'16712.8
2016-Jun-21 01:29N 39°39' E 025°45'1312.5
2016-Jun-21 00:26N 39°27' E 025°37'5112.6
2016-Jun-20 20:22N 38°41' E 025°09'6913.8
2016-Jun-20 15:21N 37°44' E 024°19'1012.9
2016-Jun-20 14:34N 37°36' E 024°11'1515.3
2016-Jun-20 13:34N 37°23' E 024°00'1615.5
2016-Jun-20 12:33N 37°10' E 023°50'1515.4
2016-Jun-20 11:34N 36°57' E 023°39'1615.4
2016-Jun-20 10:33N 36°44' E 023°29'1815.4
2016-Jun-20 09:21N 36°28' E 023°18'  
Track history (hours):
 
Tides and Currents Weather Stations Pressure Air Temp Water Temp Dewpoint Dewpoint Depression Visibility Wind Speed Wind Dir Waves Ship Positions

Emerald Leader

Last reported at 2016-Jun-29 23:15 UTC. Time now 2016-Jun-29 23:46 UTC.
Position N 36°36' W 001°05'.

Length 176 m; draft 7.7 m.

Type: Cargo ship. MMSI: 308688000.

Date/timePositionNaut miles runAvg speedWind from/ knotsBaromVisibWave heightAir tempDewpointWater temp
2016-Jun-29 23:15N 36°36' W 001°05'1014.6
2016-Jun-29 22:33N 36°38' W 000°53'1414.7
2016-Jun-29 21:33N 36°41' W 000°35'1514.6
2016-Jun-29 20:33N 36°41' W 000°17'1616.1
2016-Jun-29 19:33N 36°44' E 000°03'1717.0
2016-Jun-29 18:33N 36°47' E 000°24'1717.0
2016-Jun-29 17:33N 36°50' E 000°45'1616.1
2016-Jun-29 16:33N 36°52' E 001°05'1616.1
2016-Jun-29 15:32N 36°55' E 001°25'1615.9
2016-Jun-29 14:33N 36°57' E 001°45'1616.0
2016-Jun-29 13:33N 37°01' E 002°04'1716.1
2016-Jun-29 12:31N 37°03' E 002°25'6416.2
2016-Jun-29 08:33N 37°11' E 003°45'1716.1
2016-Jun-29 07:29N 37°14' E 004°06'1415.5
2016-Jun-29 06:33N 37°15' E 004°24'3416.3
2016-Jun-29 04:28N 37°19' E 005°07'3116.1
2016-Jun-29 02:32N 37°24' E 005°45'1616.3
2016-Jun-29 01:32N 37°25' E 006°06'1515.7
2016-Jun-29 00:33N 37°27' E 006°25'8515.6
2016-Jun-28 19:07N 37°40' E 008°11'1017.1
2016-Jun-28 18:33N 37°41' E 008°23'4715.4
2016-Jun-28 15:31N 37°43' E 009°22'1514.3
2016-Jun-28 14:27N 37°41' E 009°41'10014.1
2016-Jun-28 07:20N 37°13' E 011°42'1113.6
2016-Jun-28 06:33N 37°08' E 011°54'2814.2
2016-Jun-28 04:34N 36°58' E 012°27'1514.6
2016-Jun-28 03:34N 36°54' E 012°45'1514.6
2016-Jun-28 02:34N 36°49' E 013°02'1414.5
2016-Jun-28 01:34N 36°45' E 013°20'1514.6
2016-Jun-28 00:34N 36°41' E 013°37'1514.7
2016-Jun-27 23:33N 36°36' E 013°54'1514.7
2016-Jun-27 22:34N 36°32' E 014°12'1514.8
2016-Jun-27 21:34N 36°28' E 014°30'1515.0
2016-Jun-27 20:34N 36°25' E 014°48'1515.2
2016-Jun-27 19:34N 36°25' E 015°07'1514.9
2016-Jun-27 18:33N 36°25' E 015°26'1615.9
2016-Jun-27 17:33N 36°24' E 015°45'1615.9
2016-Jun-27 16:32N 36°24' E 016°05'2215.3
2016-Jun-27 15:08N 36°24' E 016°32'34814.6
2016-Jun-26 15:17N 37°03' E 023°44'1516.2
2016-Jun-26 14:21N 37°15' E 023°54'1416.6
2016-Jun-26 13:30N 37°28' E 024°02'1916.8
2016-Jun-26 12:22N 37°44' E 024°15'277 6.3
2016-Jun-24 16:24N 40°25' E 029°05'4 4.6
2016-Jun-24 15:29N 40°25' E 028°59'1 1.3
2016-Jun-24 14:33N 40°26' E 029°00'2 2.0
2016-Jun-24 13:27N 40°27' E 029°03'1 0.0
2016-Jun-23 20:19N 40°27' E 029°03'16 5.8
2016-Jun-23 17:33N 40°43' E 028°60'1615.7
2016-Jun-23 16:33N 40°44' E 029°21'8 0.2
2016-Jun-21 16:26N 40°45' E 029°32'1011.2
2016-Jun-21 15:33N 40°43' E 029°19'9 8.7
2016-Jun-21 14:32N 40°41' E 029°07'16712.8
2016-Jun-21 01:29N 39°39' E 025°45'1312.5
2016-Jun-21 00:26N 39°27' E 025°37'5112.6
2016-Jun-20 20:22N 38°41' E 025°09'6913.8
2016-Jun-20 15:21N 37°44' E 024°19'1012.9
2016-Jun-20 14:34N 37°36' E 024°11'1515.3
2016-Jun-20 13:34N 37°23' E 024°00'1615.5
2016-Jun-20 12:33N 37°10' E 023°50'1515.4
2016-Jun-20 11:34N 36°57' E 023°39'1615.4
2016-Jun-20 10:33N 36°44' E 023°29'1815.4
2016-Jun-20 09:21N 36°28' E 023°18'  

Dump ship's entire track history